createdAt,value
2018-06-05T00:01:17.152Z,81.78
2018-06-05T00:03:46.421Z,82.42
2018-06-05T00:06:15.672Z,81.65
2018-06-05T00:08:44.637Z,81.39
2018-06-05T00:11:13.949Z,81.76
2018-06-05T00:13:43.114Z,82.55
2018-06-05T00:16:12.081Z,82.38
2018-06-05T00:18:40.945Z,82.91
2018-06-05T00:21:10.130Z,83.09
2018-06-05T00:23:39.609Z,82.65
2018-06-05T00:26:08.806Z,83.29
2018-06-05T00:28:37.842Z,82.85
2018-06-05T00:31:07.509Z,82.84
2018-06-05T00:33:37.168Z,83.44
2018-06-05T00:36:06.292Z,83.36
2018-06-05T00:38:35.442Z,83.33
2018-06-05T00:41:04.627Z,83.45
2018-06-05T00:43:33.813Z,83.41
2018-06-05T00:46:02.709Z,83.76
2018-06-05T00:48:31.892Z,84.02
2018-06-05T00:51:01.484Z,83.76
2018-06-05T00:53:30.651Z,83.50
2018-06-05T00:56:00.119Z,83.55
2018-06-05T00:58:29.353Z,84.29
2018-06-05T01:00:58.331Z,83.80
2018-06-05T01:03:27.378Z,84.10
2018-06-05T01:05:56.501Z,84.26
2018-06-05T01:08:25.750Z,84.77
2018-06-05T01:10:54.962Z,84.47
2018-06-05T01:13:24.125Z,84.69
2018-06-05T01:15:53.005Z,85.03
2018-06-05T01:18:22.595Z,84.63
2018-06-05T01:20:51.466Z,84.52
2018-06-05T01:23:20.790Z,83.91
2018-06-05T01:25:50.179Z,83.53
2018-06-05T01:28:19.572Z,83.74
2018-06-05T01:30:48.687Z,83.73
2018-06-05T01:33:17.709Z,83.48
2018-06-05T01:35:47.182Z,83.00
2018-06-05T01:38:16.018Z,83.07
2018-06-05T01:40:45.843Z,83.71
2018-06-05T01:43:15.105Z,84.33
2018-06-05T01:45:45.008Z,84.30
2018-06-05T01:48:14.557Z,84.70
2018-06-05T01:50:43.630Z,84.96
2018-06-05T01:53:13.372Z,84.92
2018-06-05T01:55:42.354Z,85.17
2018-06-05T01:58:11.530Z,85.55
2018-06-05T02:00:40.493Z,85.95
2018-06-05T02:03:09.939Z,85.75
2018-06-05T02:05:39.094Z,85.38
2018-06-05T02:08:08.551Z,85.70
2018-06-05T02:10:37.449Z,86.04
2018-06-05T02:13:06.643Z,85.64
2018-06-05T02:15:35.832Z,85.44
2018-06-05T02:18:04.948Z,86.08
2018-06-05T02:20:34.015Z,85.88
2018-06-05T02:23:02.815Z,86.10
2018-06-05T02:25:31.930Z,86.57
2018-06-05T02:28:01.416Z,86.97
2018-06-05T02:30:30.923Z,87.57
2018-06-05T02:33:00.582Z,87.32
2018-06-05T02:35:29.445Z,87.56
2018-06-05T02:37:58.339Z,87.88
2018-06-05T02:40:27.470Z,87.94
2018-06-05T02:42:56.421Z,88.16
2018-06-05T02:45:25.311Z,88.42
2018-06-05T02:47:54.193Z,88.18
2018-06-05T02:50:23.094Z,88.48
2018-06-05T02:52:52.228Z,89.40
2018-06-05T02:55:21.125Z,88.89
2018-06-05T02:57:49.969Z,89.30
2018-06-05T03:00:18.786Z,89.21
2018-06-05T03:02:51.457Z,89.05
2018-06-05T03:05:20.284Z,88.65
2018-06-05T03:07:49.523Z,88.85
2018-06-05T03:10:18.665Z,88.98
2018-06-05T03:12:47.607Z,89.23
2018-06-05T03:15:17.411Z,89.35
2018-06-05T03:17:46.336Z,89.12
2018-06-05T03:20:16.115Z,89.00
2018-06-05T03:22:45.304Z,89.13
2018-06-05T03:25:14.801Z,89.13
2018-06-05T03:27:43.675Z,89.14
2018-06-05T03:30:12.981Z,88.92
2018-06-05T03:32:42.096Z,88.50
2018-06-05T03:35:11.278Z,88.54
2018-06-05T03:37:40.821Z,88.59
2018-06-05T03:40:09.613Z,88.15
2018-06-05T03:42:38.812Z,88.55
2018-06-05T03:45:08.578Z,88.20
2018-06-05T03:47:37.990Z,87.37
2018-06-05T03:50:07.383Z,87.99
2018-06-05T03:52:36.480Z,87.80
2018-06-05T03:55:06.021Z,87.43
2018-06-05T03:57:35.247Z,87.78
2018-06-05T04:00:04.049Z,87.52
2018-06-05T04:02:33.167Z,87.56
2018-06-05T04:05:02.549Z,88.04
2018-06-05T04:07:31.777Z,87.05
2018-06-05T04:10:01.240Z,86.69
2018-06-05T04:12:30.435Z,86.52
2018-06-05T04:14:59.573Z,85.70
2018-06-05T04:17:28.381Z,85.52
2018-06-05T04:19:57.776Z,85.37
2018-06-05T04:22:26.898Z,85.51
2018-06-05T04:24:56.124Z,85.34
2018-06-05T04:27:25.260Z,84.84
2018-06-05T04:29:54.382Z,84.66
2018-06-05T04:32:23.623Z,84.99
2018-06-05T04:34:52.754Z,84.94
2018-06-05T04:37:22.276Z,84.78
2018-06-05T04:39:51.087Z,84.35
2018-06-05T04:42:20.296Z,84.37
2018-06-05T04:44:49.402Z,83.28
2018-06-05T04:47:18.232Z,83.07
2018-06-05T04:49:48.803Z,82.78
2018-06-05T04:52:17.971Z,82.26
2018-06-05T04:54:47.042Z,82.19
2018-06-05T04:57:15.895Z,81.38
2018-06-05T04:59:45.053Z,81.79
2018-06-05T05:02:14.617Z,81.89
2018-06-05T05:04:50.270Z,82.36
2018-06-05T05:07:19.111Z,82.40
2018-06-05T05:09:47.933Z,81.92
2018-06-05T05:12:17.367Z,80.83
2018-06-05T05:14:46.243Z,80.59
2018-06-05T05:17:15.074Z,80.07
2018-06-05T05:19:43.918Z,80.45
2018-06-05T05:22:13.464Z,80.66
2018-06-05T05:24:42.393Z,80.48
2018-06-05T05:27:11.770Z,80.48
2018-06-05T05:29:41.513Z,80.65
2018-06-05T05:32:10.617Z,80.59
2018-06-05T05:34:39.754Z,79.48
2018-06-05T05:37:08.874Z,78.95
2018-06-05T05:39:38.174Z,79.12
2018-06-05T05:42:07.233Z,78.80
2018-06-05T05:44:36.890Z,78.79
2018-06-05T05:47:05.840Z,78.33
2018-06-05T05:49:35.103Z,78.47
2018-06-05T05:52:04.023Z,78.39
2018-06-05T05:54:33.158Z,77.80
2018-06-05T05:57:02.741Z,77.66
2018-06-05T05:59:31.576Z,77.77
2018-06-05T06:02:00.879Z,78.06
2018-06-05T06:04:29.917Z,77.67
2018-06-05T06:06:59.449Z,77.04
2018-06-05T06:09:28.629Z,76.80
2018-06-05T06:11:57.488Z,77.34
2018-06-05T06:14:26.649Z,76.90
2018-06-05T06:16:55.811Z,75.95
2018-06-05T06:19:24.856Z,76.19
2018-06-05T06:21:53.760Z,75.50
2018-06-05T06:24:22.726Z,75.80
2018-06-05T06:26:51.696Z,76.66
2018-06-05T06:29:20.636Z,76.65
2018-06-05T06:31:49.538Z,76.93
2018-06-05T06:34:18.413Z,75.96
2018-06-05T06:36:47.904Z,75.95
2018-06-05T06:39:17.159Z,75.42
2018-06-05T06:41:46.484Z,75.34
2018-06-05T06:44:15.328Z,76.05
2018-06-05T06:46:44.213Z,75.96
2018-06-05T06:49:13.754Z,74.63
2018-06-05T06:51:43.003Z,74.86
2018-06-05T06:54:12.829Z,75.41
2018-06-05T06:56:41.934Z,74.35
2018-06-05T06:59:11.360Z,75.31
2018-06-05T07:01:40.775Z,74.91
2018-06-05T07:04:10.523Z,74.18
2018-06-05T07:06:39.327Z,74.25
2018-06-05T07:09:09.283Z,73.50
2018-06-05T07:11:38.607Z,73.53
2018-06-05T07:14:08.102Z,73.75
2018-06-05T07:16:37.499Z,73.42
2018-06-05T07:19:06.627Z,73.40
2018-06-05T07:21:35.978Z,72.52
2018-06-05T07:24:05.217Z,72.64
2018-06-05T07:26:34.316Z,73.68
2018-06-05T07:29:03.748Z,73.21
2018-06-05T07:31:33.044Z,72.14
2018-06-05T07:34:02.115Z,72.06
2018-06-05T07:36:31.099Z,72.59
2018-06-05T07:39:00.403Z,71.62
2018-06-05T07:41:29.539Z,72.33
2018-06-05T07:43:58.978Z,72.21
2018-06-05T07:46:27.991Z,72.52
2018-06-05T07:48:57.476Z,72.69
2018-06-05T07:51:26.580Z,70.88
2018-06-05T07:53:55.382Z,71.88
2018-06-05T07:56:24.486Z,71.75
2018-06-05T07:58:53.327Z,71.91
2018-06-05T08:01:22.191Z,72.15
2018-06-05T08:03:51.257Z,73.04
2018-06-05T08:06:20.280Z,71.78
2018-06-05T08:08:49.930Z,70.93
2018-06-05T08:11:19.633Z,71.54
2018-06-05T08:13:49.059Z,71.71
2018-06-05T08:16:18.563Z,71.79
2018-06-05T08:18:47.378Z,72.13
2018-06-05T08:21:17.168Z,72.21
2018-06-05T08:23:46.380Z,72.21
2018-06-05T08:26:15.431Z,71.94
2018-06-05T08:28:44.387Z,70.43
2018-06-05T08:31:13.758Z,70.06
2018-06-05T08:33:42.874Z,70.00
2018-06-05T08:36:11.744Z,71.06
2018-06-05T08:38:40.953Z,71.13
2018-06-05T08:41:10.035Z,70.02
2018-06-05T08:43:39.276Z,69.20
2018-06-05T08:46:08.401Z,69.27
2018-06-05T08:48:37.892Z,69.28
2018-06-05T08:51:07.622Z,69.01
2018-06-05T08:53:36.760Z,69.51
2018-06-05T08:56:05.948Z,69.37
2018-06-05T08:58:35.625Z,69.57
2018-06-05T09:01:05.173Z,68.99
2018-06-05T09:03:33.971Z,70.17
2018-06-05T09:06:03.061Z,70.05
2018-06-05T09:08:33.002Z,70.09
2018-06-05T09:11:02.732Z,69.70
2018-06-05T09:13:32.406Z,67.65
2018-06-05T09:16:01.473Z,67.87
2018-06-05T09:18:30.729Z,67.82
2018-06-05T09:20:59.911Z,67.22
2018-06-05T09:23:28.730Z,66.79
2018-06-05T09:25:57.691Z,67.18
2018-06-05T09:28:27.173Z,66.79
2018-06-05T09:30:56.040Z,67.10
2018-06-05T09:33:25.053Z,66.91
2018-06-05T09:35:54.278Z,67.08
2018-06-05T09:38:23.049Z,66.92
2018-06-05T09:40:52.186Z,66.12
2018-06-05T09:43:21.355Z,65.55
2018-06-05T09:45:51.303Z,64.62
2018-06-05T09:48:20.866Z,65.21
2018-06-05T09:50:50.116Z,64.68
2018-06-05T09:53:19.821Z,65.32
2018-06-05T09:55:48.990Z,64.69
2018-06-05T09:58:18.179Z,63.86
2018-06-05T10:00:53.484Z,64.40
2018-06-05T10:03:22.869Z,64.85
2018-06-05T10:05:52.195Z,64.12
2018-06-05T10:08:21.736Z,64.13
2018-06-05T10:10:50.727Z,61.07
2018-06-05T10:13:19.831Z,61.90
2018-06-05T10:15:48.893Z,61.16
2018-06-05T10:18:18.261Z,62.43
2018-06-05T10:20:48.051Z,62.60
2018-06-05T10:23:16.996Z,62.23
2018-06-05T10:25:45.953Z,61.95
2018-06-05T10:28:15.203Z,62.64
2018-06-05T10:30:44.340Z,62.79
2018-06-05T10:33:13.875Z,61.25
2018-06-05T10:35:43.116Z,62.41
2018-06-05T10:38:12.019Z,62.13
2018-06-05T10:40:41.351Z,62.12
2018-06-05T10:43:10.831Z,60.22
2018-06-05T10:45:40.316Z,60.00
2018-06-05T10:48:09.378Z,60.46
2018-06-05T10:50:39.660Z,59.73
2018-06-05T10:53:09.357Z,61.00
2018-06-05T10:55:39.053Z,59.90
2018-06-05T10:58:09.177Z,58.42
2018-06-05T11:00:38.370Z,59.26
2018-06-05T11:03:07.853Z,59.38
2018-06-05T11:05:37.493Z,58.44
2018-06-05T11:08:06.518Z,57.39
2018-06-05T11:10:35.501Z,57.36
2018-06-05T11:13:05.071Z,58.09
2018-06-05T11:15:34.059Z,58.06
2018-06-05T11:18:02.879Z,58.42
2018-06-05T11:20:31.868Z,57.60
2018-06-05T11:23:01.535Z,57.36
2018-06-05T11:25:31.696Z,56.98
2018-06-05T11:28:01.091Z,56.85
2018-06-05T11:30:31.206Z,56.49
2018-06-05T11:33:00.236Z,55.63
2018-06-05T11:35:29.638Z,57.19
2018-06-05T11:37:58.618Z,55.89
2018-06-05T11:40:28.093Z,54.98
2018-06-05T11:42:57.128Z,55.56
2018-06-05T11:45:26.200Z,54.72
2018-06-05T11:47:55.441Z,56.32
2018-06-05T11:50:24.805Z,54.46
2018-06-05T11:52:53.766Z,54.34
2018-06-05T11:55:23.225Z,55.72
2018-06-05T11:57:52.588Z,53.59
2018-06-05T12:00:22.251Z,53.08
2018-06-05T12:03:01.373Z,54.90
2018-06-05T12:05:30.311Z,55.04
2018-06-05T12:07:59.558Z,53.49
2018-06-05T12:10:28.725Z,52.77
2018-06-05T12:12:57.836Z,53.49
2018-06-05T12:15:26.655Z,53.69
2018-06-05T12:17:55.496Z,52.96
2018-06-05T12:20:24.590Z,52.02
2018-06-05T12:22:53.356Z,50.69
2018-06-05T12:25:22.750Z,51.17
2018-06-05T12:27:51.574Z,51.03
2018-06-05T12:30:20.636Z,49.74
2018-06-05T12:32:50.730Z,49.15
2018-06-05T12:35:19.773Z,49.30
2018-06-05T12:37:49.065Z,46.50
2018-06-05T12:40:18.533Z,49.04
2018-06-05T12:42:47.293Z,48.94
2018-06-05T12:45:16.632Z,48.43
2018-06-05T12:47:45.634Z,48.24
2018-06-05T12:50:14.353Z,48.46
2018-06-05T12:52:43.502Z,46.65
2018-06-05T12:55:12.854Z,46.65
2018-06-05T12:57:41.628Z,47.05
2018-06-05T13:00:11.317Z,48.36
2018-06-05T13:02:40.463Z,45.46
2018-06-05T13:05:09.758Z,44.99
2018-06-05T13:07:38.594Z,44.60
2018-06-05T13:10:08.018Z,44.42
2018-06-05T13:12:37.107Z,46.27
2018-06-05T13:15:06.214Z,44.56
2018-06-05T13:17:35.893Z,43.41
2018-06-05T13:20:05.165Z,42.95
2018-06-05T13:22:34.180Z,43.02
2018-06-05T13:25:03.246Z,42.77
2018-06-05T13:27:32.007Z,43.22
2018-06-05T13:30:00.846Z,41.22
2018-06-05T13:32:29.835Z,42.26
2018-06-05T13:34:58.793Z,42.06
2018-06-05T13:37:28.007Z,41.21
2018-06-05T13:39:56.828Z,41.67
2018-06-05T13:42:26.003Z,40.97
2018-06-05T13:44:54.838Z,42.39
2018-06-05T13:47:24.303Z,41.60
2018-06-05T13:49:53.163Z,40.08
2018-06-05T13:52:22.060Z,40.76
2018-06-05T13:54:50.829Z,41.15
2018-06-05T13:57:20.248Z,39.75
2018-06-05T13:59:49.906Z,41.43
2018-06-05T14:02:18.804Z,40.94
2018-06-05T14:04:48.112Z,41.22
2018-06-05T14:07:17.146Z,41.57
2018-06-05T14:09:45.952Z,40.21
2018-06-05T14:12:16.742Z,39.28
2018-06-05T14:14:46.270Z,39.46
2018-06-05T14:17:15.371Z,40.31
2018-06-05T14:19:44.605Z,41.22
2018-06-05T14:22:13.921Z,41.77
2018-06-05T14:24:43.308Z,40.47
2018-06-05T14:27:12.521Z,42.15
2018-06-05T14:29:41.596Z,41.20
2018-06-05T14:32:10.490Z,40.34
2018-06-05T14:34:39.588Z,41.35
2018-06-05T14:37:08.960Z,40.36
2018-06-05T14:39:37.819Z,40.68
2018-06-05T14:42:07.366Z,39.72
2018-06-05T14:44:36.972Z,38.79
2018-06-05T14:47:06.474Z,38.76
2018-06-05T14:49:36.246Z,39.42
2018-06-05T14:52:05.090Z,39.82
2018-06-05T14:54:34.451Z,39.86
2018-06-05T14:57:03.680Z,40.60
2018-06-05T14:59:32.778Z,39.65
2018-06-05T15:02:01.904Z,39.57
2018-06-05T15:04:31.064Z,39.25
2018-06-05T15:07:00.472Z,40.99
2018-06-05T15:09:29.675Z,39.34
2018-06-05T15:11:59.071Z,39.33
2018-06-05T15:14:28.178Z,38.83
2018-06-05T15:16:57.666Z,38.69
2018-06-05T15:19:26.486Z,40.23
2018-06-05T15:21:55.648Z,40.97
2018-06-05T15:24:25.102Z,40.03
2018-06-05T15:26:54.677Z,40.52
2018-06-05T15:29:23.893Z,39.83
2018-06-05T15:31:53.297Z,39.96
2018-06-05T15:34:22.149Z,39.79
2018-06-05T15:36:51.373Z,39.61
2018-06-05T15:39:20.238Z,39.78
2018-06-05T15:41:49.312Z,39.79
2018-06-05T15:44:18.583Z,40.18
2018-06-05T15:46:48.080Z,40.79
2018-06-05T15:49:16.943Z,39.41
2018-06-05T15:51:46.404Z,40.33
2018-06-05T15:54:15.884Z,40.52
2018-06-05T15:56:45.084Z,39.16
2018-06-05T15:59:14.135Z,39.77
2018-06-05T16:01:43.004Z,39.29
2018-06-05T16:04:12.360Z,39.22
2018-06-05T16:06:41.598Z,39.84
2018-06-05T16:09:10.965Z,39.97
2018-06-05T16:11:40.479Z,40.41
2018-06-05T16:14:09.591Z,41.36
2018-06-05T16:16:38.405Z,42.15
2018-06-05T16:19:07.286Z,40.29
2018-06-05T16:21:36.098Z,41.55
2018-06-05T16:24:05.572Z,41.64
2018-06-05T16:26:34.437Z,42.19
2018-06-05T16:29:03.306Z,41.32
2018-06-05T16:31:32.814Z,42.05
2018-06-05T16:34:01.656Z,42.91
2018-06-05T16:36:30.819Z,42.43
2018-06-05T16:39:00.506Z,41.73
2018-06-05T16:41:30.135Z,41.47
2018-06-05T16:43:59.525Z,40.59
2018-06-05T16:46:28.381Z,40.46
2018-06-05T16:48:57.248Z,40.50
2018-06-05T16:51:26.526Z,40.41
2018-06-05T16:53:56.013Z,40.53
2018-06-05T16:56:25.215Z,40.99
2018-06-05T16:58:55.207Z,40.67
2018-06-05T17:01:24.046Z,40.79
2018-06-05T17:03:53.227Z,42.65
2018-06-05T17:06:22.578Z,42.14
2018-06-05T17:08:51.458Z,41.58
2018-06-05T17:11:20.525Z,41.72
2018-06-05T17:13:49.895Z,42.91
2018-06-05T17:16:19.467Z,42.56
2018-06-05T17:18:49.114Z,43.16
2018-06-05T17:21:17.981Z,45.27
2018-06-05T17:23:46.866Z,47.88
2018-06-05T17:26:16.005Z,48.32
2018-06-05T17:28:44.868Z,48.96
2018-06-05T17:31:14.293Z,49.89
2018-06-05T17:33:43.952Z,50.57
2018-06-05T17:36:13.521Z,50.38
2018-06-05T17:38:44.094Z,50.42
2018-06-05T17:41:14.559Z,50.79
2018-06-05T17:43:44.589Z,51.42
2018-06-05T17:46:14.036Z,52.33
2018-06-05T17:48:43.491Z,53.13
2018-06-05T17:51:12.914Z,52.22
2018-06-05T17:53:42.120Z,53.69
2018-06-05T17:56:11.393Z,54.25
2018-06-05T17:58:40.684Z,55.30
2018-06-05T18:01:10.029Z,54.72
2018-06-05T18:03:38.909Z,55.05
2018-06-05T18:06:08.356Z,55.50
2018-06-05T18:08:37.827Z,55.95
2018-06-05T18:11:06.752Z,56.80
2018-06-05T18:13:35.922Z,57.31
2018-06-05T18:16:04.803Z,57.58
2018-06-05T18:18:34.218Z,58.39
2018-06-05T18:21:04.026Z,58.75
2018-06-05T18:23:33.264Z,59.60
2018-06-05T18:26:02.132Z,59.37
2018-06-05T18:28:31.492Z,59.54
2018-06-05T18:31:00.887Z,60.67
2018-06-05T18:33:29.720Z,60.20
2018-06-05T18:35:58.587Z,60.57
2018-06-05T18:38:28.205Z,59.81
2018-06-05T18:40:56.996Z,60.30
2018-06-05T18:43:25.825Z,60.78
2018-06-05T18:45:55.541Z,61.10
2018-06-05T18:48:24.908Z,61.01
2018-06-05T18:50:54.044Z,61.26
2018-06-05T18:53:24.164Z,61.62
2018-06-05T18:55:53.358Z,61.26
2018-06-05T18:58:22.591Z,61.00
2018-06-05T19:00:51.458Z,62.09
2018-06-05T19:03:20.847Z,61.75
2018-06-05T19:05:50.184Z,61.90
2018-06-05T19:08:19.603Z,62.16
2018-06-05T19:10:48.730Z,62.23
2018-06-05T19:13:18.063Z,63.17
2018-06-05T19:15:46.913Z,63.22
2018-06-05T19:18:16.181Z,63.04
2018-06-05T19:20:45.325Z,63.91
2018-06-05T19:23:14.194Z,63.67
2018-06-05T19:25:44.176Z,64.55
2018-06-05T19:28:13.372Z,64.07
2018-06-05T19:30:42.538Z,64.08
2018-06-05T19:33:11.655Z,65.13
2018-06-05T19:35:40.768Z,65.21
2018-06-05T19:38:09.637Z,65.77
2018-06-05T19:40:38.972Z,66.04
2018-06-05T19:43:07.782Z,66.47
2018-06-05T19:45:36.847Z,66.60
2018-06-05T19:48:06.015Z,66.74
2018-06-05T19:50:35.209Z,67.34
2018-06-05T19:53:04.392Z,67.57
2018-06-05T19:55:33.745Z,68.03
2018-06-05T19:58:03.294Z,68.82
2018-06-05T20:00:32.338Z,69.27
2018-06-05T20:03:01.689Z,69.42
2018-06-05T20:05:31.207Z,69.75
2018-06-05T20:08:00.348Z,69.92
2018-06-05T20:10:29.251Z,70.07
2018-06-05T20:12:58.128Z,70.69
2018-06-05T20:15:27.649Z,70.56
2018-06-05T20:17:57.136Z,70.98
2018-06-05T20:20:26.385Z,71.18
2018-06-05T20:22:55.558Z,71.51
2018-06-05T20:25:24.574Z,71.86
2018-06-05T20:27:54.197Z,71.58
2018-06-05T20:30:24.047Z,72.24
2018-06-05T20:32:53.869Z,72.88
2018-06-05T20:35:22.955Z,72.35
2018-06-05T20:37:51.779Z,73.52
2018-06-05T20:40:20.644Z,73.06
2018-06-05T20:42:49.624Z,73.50
2018-06-05T20:45:19.194Z,74.05
2018-06-05T20:47:48.341Z,74.34
2018-06-05T20:50:17.814Z,74.15
2018-06-05T20:52:46.635Z,74.74
2018-06-05T20:55:15.554Z,74.82
2018-06-05T20:57:44.429Z,75.24
2018-06-05T21:00:13.495Z,75.06
2018-06-05T21:02:42.965Z,75.41
2018-06-05T21:05:12.521Z,76.20
2018-06-05T21:07:41.719Z,76.19
2018-06-05T21:10:10.621Z,76.56
2018-06-05T21:12:39.571Z,76.29
2018-06-05T21:15:08.818Z,77.15
2018-06-05T21:17:38.009Z,76.95
2018-06-05T21:20:06.990Z,76.90
2018-06-05T21:22:36.096Z,77.17
2018-06-05T21:25:05.275Z,77.03
2018-06-05T21:27:34.555Z,77.13
2018-06-05T21:30:03.392Z,77.33
2018-06-05T21:32:32.559Z,77.68
2018-06-05T21:35:01.858Z,77.42
2018-06-05T21:37:30.689Z,77.23
2018-06-05T21:39:59.850Z,77.28
2018-06-05T21:42:28.945Z,77.31
2018-06-05T21:44:58.090Z,76.91
2018-06-05T21:47:27.387Z,76.96
2018-06-05T21:49:56.543Z,76.93
2018-06-05T21:52:25.685Z,76.96
2018-06-05T21:54:55.322Z,76.69
2018-06-05T21:57:24.571Z,76.60
2018-06-05T21:59:53.674Z,76.89
2018-06-05T22:02:22.827Z,77.32
2018-06-05T22:04:51.661Z,77.58
2018-06-05T22:07:21.075Z,77.53
2018-06-05T22:09:50.551Z,77.25
2018-06-05T22:12:19.732Z,77.66
2018-06-05T22:14:49.411Z,77.23
2018-06-05T22:17:18.445Z,77.73
2018-06-05T22:19:47.552Z,77.37
2018-06-05T22:22:16.357Z,76.98
2018-06-05T22:24:45.992Z,77.36
2018-06-05T22:27:14.782Z,76.83
2018-06-05T22:29:43.568Z,76.64
2018-06-05T22:32:13.066Z,77.39
2018-06-05T22:34:41.955Z,76.83
2018-06-05T22:37:10.742Z,77.18
2018-06-05T22:39:40.093Z,76.87
2018-06-05T22:42:09.510Z,76.88
2018-06-05T22:44:38.596Z,77.50
2018-06-05T22:47:07.525Z,77.61
2018-06-05T22:49:37.077Z,77.99
2018-06-05T22:52:06.227Z,77.64
2018-06-05T22:54:36.089Z,77.99
2018-06-05T22:57:04.923Z,78.02
2018-06-05T22:59:35.307Z,78.11
2018-06-05T23:02:04.473Z,78.05
2018-06-05T23:04:34.222Z,77.93
2018-06-05T23:07:03.357Z,78.16
2018-06-05T23:09:32.149Z,78.64
2018-06-05T23:12:01.511Z,78.01
2018-06-05T23:14:30.596Z,78.51
2018-06-05T23:17:00.335Z,78.45
2018-06-05T23:19:29.573Z,78.84
2018-06-05T23:21:58.487Z,78.85
2018-06-05T23:24:27.894Z,79.02
2018-06-05T23:26:57.171Z,79.13
2018-06-05T23:29:26.059Z,79.23
2018-06-05T23:31:55.635Z,79.16
2018-06-05T23:34:24.566Z,79.08
2018-06-05T23:36:53.391Z,78.98
2018-06-05T23:39:22.847Z,79.32
2018-06-05T23:41:51.914Z,79.57
2018-06-05T23:44:21.040Z,79.50
2018-06-05T23:46:50.198Z,79.92
2018-06-05T23:49:19.222Z,80.14
2018-06-05T23:51:48.789Z,79.89
2018-06-05T23:54:17.819Z,80.15
2018-06-05T23:56:47.013Z,80.16
2018-06-05T23:59:15.979Z,80.38
